Time;durP1;ratioP1;P1;durP2;ratioP2;P2;SDS_P1;SDS_P2;PMS_P1;PMS_P2;Temp;Humidity;BMP_temperature;BMP_pressure;BME280_temperature;BME280_humidity;BME280_pressure;Samples;Min_cycle;Max_cycle;Signal;HPM_P1;HPM_P2
2022/11/20 00:01:34;;;;;;;9.68;3.10;;;;;;;;;;4958146;28;20043;-74
2022/11/20 00:04:20;;;;;;;8.75;3.40;;;;;;;;;;4959341;28;20114;-73
2022/11/20 00:07:05;;;;;;;4.97;3.38;;;;;;;;;;4957283;28;20031;-74
2022/11/20 00:09:50;;;;;;;7.13;3.30;;;;;;;;;;4969081;28;20086;-73
2022/11/20 00:12:36;;;;;;;6.82;3.15;;;;;;;;;;4967695;28;20035;-72
2022/11/20 00:15:21;;;;;;;8.90;4.15;;;;;;;;;;4959490;28;20030;-73
2022/11/20 00:18:27;;;;;;;5.55;3.20;;;;;;;;;;4960451;28;20484;-78
2022/11/20 00:21:16;;;;;;;6.45;3.35;;;;;;;;;;4959933;28;20026;-73
2022/11/20 00:24:01;;;;;;;5.05;3.42;;;;;;;;;;4961137;28;20038;-73
2022/11/20 00:26:47;;;;;;;7.97;3.58;;;;;;;;;;4963222;28;20062;-74
2022/11/20 00:29:32;;;;;;;6.90;3.40;;;;;;;;;;4961195;28;20019;-73
2022/11/20 00:32:17;;;;;;;9.18;3.35;;;;;;;;;;4964977;28;20031;-73
2022/11/20 00:35:02;;;;;;;8.43;3.53;;;;;;;;;;4955754;28;20489;-72
2022/11/20 00:37:48;;;;;;;8.00;3.50;;;;;;;;;;4958753;28;20027;-70
2022/11/20 00:40:33;;;;;;;9.50;4.53;;;;;;;;;;4957613;28;20039;-72
2022/11/20 00:43:18;;;;;;;6.30;3.40;;;;;;;;;;4970379;28;20070;-73
2022/11/20 00:46:05;;;;;;;6.68;3.55;;;;;;;;;;4958415;28;20045;-72
2022/11/20 00:48:51;;;;;;;6.18;3.00;;;;;;;;;;4956447;28;20034;-71
2022/11/20 00:51:36;;;;;;;7.70;3.42;;;;;;;;;;4957657;28;20027;-72
2022/11/20 00:54:21;;;;;;;8.30;3.40;;;;;;;;;;4955573;28;20035;-72
2022/11/20 00:57:07;;;;;;;9.80;3.72;;;;;;;;;;4953801;28;20031;-69
2022/11/20 00:59:52;;;;;;;6.07;3.10;;;;;;;;;;4962595;28;20166;-72
2022/11/20 01:02:37;;;;;;;7.63;3.70;;;;;;;;;;4956965;28;20499;-70
2022/11/20 01:05:22;;;;;;;5.80;3.10;;;;;;;;;;4959591;28;20041;-70
2022/11/20 01:08:08;;;;;;;6.20;2.80;;;;;;;;;;4969410;28;20046;-71
2022/11/20 01:10:58;;;;;;;6.95;3.40;;;;;;;;;;4964637;28;20173;-70
2022/11/20 01:13:43;;;;;;;;;;;;;;;;;;4965854;28;20059;-72
2022/11/20 01:16:31;;;;;;;4.20;3.33;;;;;;;;;;4969220;28;19926;-70
2022/11/20 01:19:20;;;;;;;4.47;2.70;;;;;;;;;;4960662;28;20027;-71
2022/11/20 01:22:05;;;;;;;5.38;2.67;;;;;;;;;;4961719;28;20067;-71
2022/11/20 01:24:51;;;;;;;4.63;2.13;;;;;;;;;;4968141;28;20034;-71
2022/11/20 01:27:36;;;;;;;5.15;2.83;;;;;;;;;;4960060;28;20041;-70
2022/11/20 01:30:21;;;;;;;5.00;2.35;;;;;;;;;;4966947;28;20035;-71
2022/11/20 01:33:06;;;;;;;2.60;1.83;;;;;;;;;;4968959;28;20027;-70
2022/11/20 01:35:52;;;;;;;3.15;2.33;;;;;;;;;;5005105;23;20057;-69
2022/11/20 01:38:38;;;;;;;5.20;2.88;;;;;;;;;;5030652;28;20037;-68
2022/11/20 01:44:47;;;;;;;3.45;2.30;;;;;;;;;;5030948;28;20452;-69
2022/11/20 01:47:44;;;;;;;4.15;2.55;;;;;;;;;;5021545;28;20071;-68
2022/11/20 01:50:29;;;;;;;3.47;2.22;;;;;;;;;;5022485;28;20069;-70
2022/11/20 01:53:16;;;;;;;3.58;2.60;;;;;;;;;;5016491;28;20034;-72
2022/11/20 01:56:02;;;;;;;6.75;2.33;;;;;;;;;;5029118;28;20396;-82
2022/11/20 01:58:51;;;;;;;4.28;2.40;;;;;;;;;;5032335;28;20037;-81
2022/11/20 02:01:36;;;;;;;4.57;1.88;;;;;;;;;;5024347;28;20033;-80
2022/11/20 02:04:22;;;;;;;3.05;1.95;;;;;;;;;;5020037;28;20450;-79
2022/11/20 02:07:07;;;;;;;3.33;2.03;;;;;;;;;;5012971;28;20025;-81
2022/11/20 02:09:53;;;;;;;9.15;3.17;;;;;;;;;;5033260;28;20037;-70
2022/11/20 02:15:42;;;;;;;4.53;2.30;;;;;;;;;;5028185;28;20040;-69
2022/11/20 02:18:28;;;;;;;3.60;2.15;;;;;;;;;;5026407;28;20228;-70
2022/11/20 02:21:21;;;;;;;4.82;2.33;;;;;;;;;;5017737;28;20033;-70
2022/11/20 02:24:11;;;;;;;4.40;2.80;;;;;;;;;;5029266;28;20025;-69
2022/11/20 02:26:59;;;;;;;3.38;2.17;;;;;;;;;;5032932;28;20091;-70
2022/11/20 02:29:47;;;;;;;3.97;2.70;;;;;;;;;;5030142;28;20059;-82
2022/11/20 02:32:36;;;;;;;4.80;2.00;;;;;;;;;;5027962;28;20032;-71
2022/11/20 02:35:21;;;;;;;5.17;2.03;;;;;;;;;;5018066;28;20026;-70
2022/11/20 02:38:06;;;;;;;3.78;2.55;;;;;;;;;;5031952;28;20091;-70
2022/11/20 02:40:52;;;;;;;3.58;2.10;;;;;;;;;;5029787;28;20033;-70
2022/11/20 02:43:37;;;;;;;3.53;2.22;;;;;;;;;;5027878;28;20072;-69
2022/11/20 02:46:22;;;;;;;4.57;2.55;;;;;;;;;;5026632;28;20037;-69
2022/11/20 02:49:07;;;;;;;4.43;3.50;;;;;;;;;;5018573;28;20036;-69
2022/11/20 02:51:53;;;;;;;6.13;2.40;;;;;;;;;;5020160;28;20029;-68
2022/11/20 02:54:38;;;;;;;3.50;2.40;;;;;;;;;;5032470;28;20037;-69
2022/11/20 02:57:23;;;;;;;5.75;2.22;;;;;;;;;;5033175;28;20072;-69
2022/11/20 03:00:09;;;;;;;5.32;2.25;;;;;;;;;;5030156;28;20029;-68
2022/11/20 03:02:54;;;;;;;3.22;2.33;;;;;;;;;;5031289;28;20132;-69
2022/11/20 03:05:39;;;;;;;4.65;2.03;;;;;;;;;;5028051;28;20029;-83
2022/11/20 03:08:25;;;;;;;5.47;2.45;;;;;;;;;;5015859;28;20036;-68
2022/11/20 03:11:10;;;;;;;7.25;2.22;;;;;;;;;;5017206;28;20105;-69
2022/11/20 03:13:55;;;;;;;6.40;2.60;;;;;;;;;;5027835;28;20036;-68
2022/11/20 03:16:41;;;;;;;4.25;1.90;;;;;;;;;;5029511;28;20022;-69
2022/11/20 03:19:26;;;;;;;4.75;2.50;;;;;;;;;;5016234;28;20021;-69
2022/11/20 03:22:11;;;;;;;4.90;2.13;;;;;;;;;;5035523;28;20025;-82
2022/11/20 03:24:57;;;;;;;4.05;1.90;;;;;;;;;;5014752;28;20061;-72
2022/11/20 03:27:42;;;;;;;4.20;1.75;;;;;;;;;;5030604;28;20029;-72
2022/11/20 03:30:27;;;;;;;5.07;2.00;;;;;;;;;;5030326;28;20040;-71
2022/11/20 03:33:13;;;;;;;4.90;2.13;;;;;;;;;;5016652;28;20025;-72
2022/11/20 03:36:02;;;;;;;5.65;2.67;;;;;;;;;;5015321;28;20037;-71
2022/11/20 03:38:48;;;;;;;;;;;;;;;;;;5027717;28;20047;-70
2022/11/20 03:41:36;;;;;;;3.78;2.20;;;;;;;;;;5028577;28;20018;-71
2022/11/20 03:44:22;;;;;;;5.78;2.72;;;;;;;;;;5028014;28;20089;-76
2022/11/20 03:47:07;;;;;;;7.30;2.67;;;;;;;;;;5030610;28;20033;-74
2022/11/20 03:49:52;;;;;;;3.85;2.10;;;;;;;;;;5030686;28;20052;-74
2022/11/20 03:52:38;;;;;;;4.75;2.10;;;;;;;;;;5032907;28;20033;-74
2022/11/20 03:55:23;;;;;;;10.75;3.53;;;;;;;;;;5019484;28;20029;-74
2022/11/20 03:58:09;;;;;;;4.90;2.38;;;;;;;;;;5031573;28;20476;-75
2022/11/20 04:00:54;;;;;;;3.55;2.75;;;;;;;;;;5022907;28;20086;-70
2022/11/20 04:03:40;;;;;;;4.00;2.28;;;;;;;;;;5015176;28;20484;-80
2022/11/20 04:06:27;;;;;;;4.75;2.28;;;;;;;;;;5029294;28;20397;-81
2022/11/20 04:09:12;;;;;;;5.07;2.20;;;;;;;;;;5027848;28;20021;-83
2022/11/20 04:11:57;;;;;;;5.13;2.67;;;;;;;;;;5011794;28;20021;-82
2022/11/20 04:14:43;;;;;;;7.82;3.15;;;;;;;;;;5016466;28;20035;-81
2022/11/20 04:17:28;;;;;;;6.43;2.30;;;;;;;;;;5026819;28;20457;-73
2022/11/20 04:20:14;;;;;;;4.57;2.85;;;;;;;;;;5028979;28;20124;-73
2022/11/20 04:22:59;;;;;;;5.53;3.53;;;;;;;;;;5024524;28;20239;-71
2022/11/20 04:25:44;;;;;;;5.63;3.22;;;;;;;;;;5021454;28;20034;-71
2022/11/20 04:28:30;;;;;;;4.30;2.78;;;;;;;;;;5031206;28;20048;-71
2022/11/20 04:31:17;;;;;;;6.05;2.83;;;;;;;;;;5027116;28;20025;-70
2022/11/20 04:34:03;;;;;;;6.60;2.75;;;;;;;;;;5030922;28;20025;-71
2022/11/20 04:36:48;;;;;;;4.80;2.40;;;;;;;;;;5029846;28;20029;-71
2022/11/20 04:39:34;;;;;;;4.70;2.55;;;;;;;;;;5010232;28;20033;-74
2022/11/20 04:42:28;;;;;;;5.40;2.58;;;;;;;;;;5011184;28;20103;-72
2022/11/20 04:45:13;;;;;;;6.97;3.25;;;;;;;;;;5029131;28;20140;-75
2022/11/20 04:47:58;;;;;;;3.00;2.28;;;;;;;;;;5029173;28;20025;-74
2022/11/20 04:50:44;;;;;;;7.55;2.58;;;;;;;;;;5028712;28;20616;-74
2022/11/20 04:53:29;;;;;;;5.53;2.42;;;;;;;;;;5023913;28;20044;-73
2022/11/20 04:56:15;;;;;;;4.95;2.72;;;;;;;;;;5012342;28;20036;-81
2022/11/20 04:59:01;;;;;;;4.90;2.53;;;;;;;;;;5022164;28;20120;-71
2022/11/20 05:01:46;;;;;;;6.75;3.00;;;;;;;;;;5029766;28;20116;-71
2022/11/20 05:04:31;;;;;;;4.38;2.67;;;;;;;;;;5031148;28;20116;-71
2022/11/20 05:07:17;;;;;;;4.40;2.72;;;;;;;;;;5027269;28;20025;-71
2022/11/20 05:10:02;;;;;;;5.25;2.83;;;;;;;;;;5030038;28;20017;-71
2022/11/20 05:12:47;;;;;;;4.13;2.50;;;;;;;;;;5008996;28;20025;-69
2022/11/20 05:15:33;;;;;;;3.72;2.30;;;;;;;;;;5010381;28;20484;-83
2022/11/20 05:18:18;;;;;;;5.18;2.70;;;;;;;;;;5006237;28;20034;-69
2022/11/20 05:21:03;;;;;;;6.30;2.88;;;;;;;;;;5012212;28;20034;-69
2022/11/20 05:23:49;;;;;;;4.00;2.67;;;;;;;;;;5029417;28;20028;-70
2022/11/20 05:26:34;;;;;;;4.40;2.42;;;;;;;;;;5023073;28;20025;-69
2022/11/20 05:29:19;;;;;;;4.80;2.58;;;;;;;;;;5020520;28;20276;-70
2022/11/20 05:32:07;;;;;;;6.72;2.60;;;;;;;;;;5028560;28;20033;-74
2022/11/20 05:34:52;;;;;;;3.80;2.80;;;;;;;;;;5014212;28;20056;-74
2022/11/20 05:37:37;;;;;;;3.67;2.70;;;;;;;;;;5029758;28;20040;-72
2022/11/20 05:40:23;;;;;;;3.92;2.60;;;;;;;;;;5014956;28;20840;-71
2022/11/20 05:43:08;;;;;;;4.18;2.40;;;;;;;;;;5012656;28;20022;-70
2022/11/20 05:45:53;;;;;;;3.67;2.70;;;;;;;;;;5026410;28;20026;-71
2022/11/20 05:48:39;;;;;;;10.38;2.90;;;;;;;;;;5030747;28;20029;-71
2022/11/20 05:51:25;;;;;;;4.57;2.50;;;;;;;;;;5018496;28;20025;-68
2022/11/20 05:54:10;;;;;;;5.60;2.83;;;;;;;;;;5034516;28;20372;-70
2022/11/20 05:56:55;;;;;;;4.22;2.20;;;;;;;;;;5018346;28;20022;-70
2022/11/20 05:59:41;;;;;;;2.85;2.22;;;;;;;;;;5030969;28;20068;-70
2022/11/20 06:02:26;;;;;;;4.22;2.45;;;;;;;;;;5026278;28;20112;-70
2022/11/20 06:05:11;;;;;;;3.33;2.30;;;;;;;;;;5030317;28;20037;-69
2022/11/20 06:07:56;;;;;;;2.38;2.05;;;;;;;;;;5032783;28;20040;-80
2022/11/20 06:10:42;;;;;;;5.22;2.35;;;;;;;;;;5016477;28;20597;-69
2022/11/20 06:13:27;;;;;;;4.60;2.78;;;;;;;;;;5015342;28;20044;-70
2022/11/20 06:16:13;;;;;;;3.80;2.60;;;;;;;;;;5014694;28;20043;-69
2022/11/20 06:18:59;;;;;;;3.97;2.35;;;;;;;;;;5030968;28;20030;-71
2022/11/20 06:21:44;;;;;;;3.72;2.20;;;;;;;;;;5027811;28;20021;-70
2022/11/20 06:24:29;;;;;;;3.17;2.15;;;;;;;;;;5013392;28;20098;-70
2022/11/20 06:27:15;;;;;;;4.03;2.47;;;;;;;;;;5032233;28;20032;-71
2022/11/20 06:30:00;;;;;;;4.20;1.95;;;;;;;;;;5032588;28;20056;-71
2022/11/20 06:32:46;;;;;;;3.72;1.77;;;;;;;;;;5025979;28;20259;-70
2022/11/20 06:35:31;;;;;;;3.15;2.20;;;;;;;;;;5014795;28;20049;-71
2022/11/20 06:38:16;;;;;;;3.20;2.13;;;;;;;;;;5016694;28;20445;-72
2022/11/20 06:41:02;;;;;;;3.92;2.13;;;;;;;;;;5028962;28;20021;-71
2022/11/20 06:43:48;;;;;;;4.00;2.33;;;;;;;;;;5017226;28;20507;-71
2022/11/20 06:46:33;;;;;;;3.58;1.65;;;;;;;;;;5016079;28;20029;-70
2022/11/20 06:49:19;;;;;;;4.65;2.55;;;;;;;;;;5016388;28;20539;-84
2022/11/20 06:52:04;;;;;;;3.45;2.35;;;;;;;;;;5016659;28;20484;-85
2022/11/20 06:54:49;;;;;;;2.28;1.80;;;;;;;;;;5029803;28;20041;-82
2022/11/20 06:57:35;;;;;;;6.43;2.00;;;;;;;;;;5028304;28;20068;-84
2022/11/20 07:00:20;;;;;;;4.65;2.35;;;;;;;;;;5016229;28;20037;-84
2022/11/20 07:03:09;;;;;;;2.85;1.88;;;;;;;;;;5031300;28;20491;-71
2022/11/20 07:05:58;;;;;;;3.00;1.85;;;;;;;;;;5024006;28;20029;-82
2022/11/20 07:08:43;;;;;;;5.15;2.78;;;;;;;;;;5017815;28;20032;-69
2022/11/20 07:11:28;;;;;;;4.18;1.98;;;;;;;;;;5016934;28;20037;-69
2022/11/20 07:14:14;;;;;;;3.28;2.30;;;;;;;;;;5030689;28;20056;-69
2022/11/20 07:16:59;;;;;;;4.90;1.80;;;;;;;;;;5013383;28;20036;-70
2022/11/20 07:19:44;;;;;;;4.78;2.13;;;;;;;;;;5032487;28;20033;-69
2022/11/20 07:22:29;;;;;;;3.08;1.98;;;;;;;;;;5025190;28;20029;-73
2022/11/20 07:25:15;;;;;;;6.57;2.25;;;;;;;;;;5030817;28;20083;-74
2022/11/20 07:28:00;;;;;;;2.60;2.10;;;;;;;;;;5032654;28;20036;-73
2022/11/20 07:30:52;;;;;;;3.88;2.42;;;;;;;;;;5030190;28;20021;-74
2022/11/20 07:33:38;;;;;;;2.35;1.80;;;;;;;;;;5028126;28;20029;-74
2022/11/20 07:36:23;;;;;;;4.70;2.53;;;;;;;;;;5018985;28;20025;-73
2022/11/20 07:39:08;;;;;;;6.13;2.22;;;;;;;;;;5034199;28;20041;-74
2022/11/20 07:41:53;;;;;;;7.20;2.53;;;;;;;;;;5031152;28;20480;-78
2022/11/20 07:44:40;;;;;;;4.43;2.20;;;;;;;;;;5007130;28;20049;-81
2022/11/20 07:47:25;;;;;;;3.60;2.15;;;;;;;;;;5030697;28;20032;-81
2022/11/20 07:50:10;;;;;;;1.83;1.30;;;;;;;;;;5030553;28;20532;-81
2022/11/20 07:53:03;;;;;;;1.83;1.45;;;;;;;;;;5015606;28;20021;-79
2022/11/20 07:55:48;;;;;;;3.75;1.98;;;;;;;;;;5025923;28;20034;-80
2022/11/20 07:58:34;;;;;;;3.20;1.60;;;;;;;;;;5010803;28;20113;-73
2022/11/20 08:01:19;;;;;;;3.95;2.10;;;;;;;;;;5031220;28;20045;-71
2022/11/20 08:04:04;;;;;;;3.85;2.08;;;;;;;;;;5011080;28;20029;-72
2022/11/20 08:06:51;;;;;;;2.97;1.90;;;;;;;;;;5008743;28;20044;-71
2022/11/20 08:09:36;;;;;;;4.70;1.77;;;;;;;;;;5022257;28;20048;-71
2022/11/20 08:15:37;;;;;;;5.03;1.60;;;;;;;;;;5008018;28;20129;-72
2022/11/20 08:18:23;;;;;;;4.18;2.03;;;;;;;;;;5016607;28;20488;-71
2022/11/20 08:21:08;;;;;;;5.20;2.13;;;;;;;;;;5027518;28;20033;-71
2022/11/20 08:23:53;;;;;;;2.63;1.60;;;;;;;;;;5026036;28;20032;-70
2022/11/20 08:26:39;;;;;;;2.13;1.30;;;;;;;;;;5024161;28;20064;-72
2022/11/20 08:29:28;;;;;;;3.38;1.65;;;;;;;;;;5030219;28;20086;-71
2022/11/20 08:32:13;;;;;;;2.03;1.40;;;;;;;;;;5028500;28;20021;-70
2022/11/20 08:34:58;;;;;;;3.17;1.90;;;;;;;;;;5015796;28;20049;-71
2022/11/20 08:37:47;;;;;;;2.65;1.52;;;;;;;;;;5029670;28;20068;-69
2022/11/20 08:40:33;;;;;;;2.83;1.45;;;;;;;;;;5019061;28;20025;-72
2022/11/20 08:43:18;;;;;;;2.88;1.65;;;;;;;;;;5029824;28;20057;-69
2022/11/20 08:46:03;;;;;;;1.63;1.52;;;;;;;;;;5028418;28;20037;-69
2022/11/20 08:48:48;;;;;;;3.15;1.38;;;;;;;;;;5029539;28;20030;-68
2022/11/20 08:51:34;;;;;;;1.55;1.30;;;;;;;;;;5031466;28;20021;-69
2022/11/20 08:54:21;;;;;;;1.58;1.38;;;;;;;;;;5016267;28;20032;-69
2022/11/20 08:57:06;;;;;;;2.35;1.33;;;;;;;;;;5027510;28;20116;-69
2022/11/20 08:59:52;;;;;;;1.40;1.10;;;;;;;;;;5029113;28;20584;-68
2022/11/20 09:02:37;;;;;;;2.65;1.30;;;;;;;;;;5024498;28;20117;-67
2022/11/20 09:05:22;;;;;;;1.98;1.23;;;;;;;;;;5030605;28;20139;-69
2022/11/20 09:08:07;;;;;;;2.35;1.40;;;;;;;;;;5030086;28;21722;-68
2022/11/20 09:10:53;;;;;;;4.03;1.92;;;;;;;;;;5024472;28;20045;-70
2022/11/20 09:13:38;;;;;;;2.05;1.10;;;;;;;;;;5031841;28;20071;-71
2022/11/20 09:16:24;;;;;;;2.35;1.40;;;;;;;;;;5014841;28;20033;-74
2022/11/20 09:19:09;;;;;;;2.55;1.50;;;;;;;;;;5031852;28;20060;-74
2022/11/20 09:21:54;;;;;;;1.95;1.13;;;;;;;;;;5030339;28;20087;-74
2022/11/20 09:24:40;;;;;;;1.48;1.10;;;;;;;;;;5031172;28;20037;-72
2022/11/20 09:27:25;;;;;;;1.23;1.13;;;;;;;;;;5017353;28;20075;-73
2022/11/20 09:30:10;;;;;;;2.05;1.30;;;;;;;;;;5030583;28;20037;-73
2022/11/20 09:32:56;;;;;;;2.20;1.45;;;;;;;;;;5014565;28;20120;-75
2022/11/20 09:35:43;;;;;;;1.27;1.15;;;;;;;;;;5031625;28;20045;-72
2022/11/20 09:38:29;;;;;;;2.20;1.23;;;;;;;;;;5030191;28;20025;-73
2022/11/20 09:41:33;;;;;;;1.15;0.90;;;;;;;;;;5032055;28;20029;-83
2022/11/20 09:44:27;;;;;;;1.05;0.88;;;;;;;;;;5018722;28;20029;-84
2022/11/20 09:47:18;;;;;;;2.00;1.27;;;;;;;;;;5025327;28;20025;-81
2022/11/20 09:50:07;;;;;;;1.48;1.00;;;;;;;;;;5019670;28;20431;-70
2022/11/20 09:52:55;;;;;;;0.95;0.88;;;;;;;;;;5031026;28;20091;-80
2022/11/20 09:55:40;;;;;;;1.50;1.02;;;;;;;;;;5032397;28;20036;-77
2022/11/20 09:58:32;;;;;;;2.38;0.90;;;;;;;;;;5013751;28;20108;-83
2022/11/20 10:01:15;;;;;;;;;;;;;;;;;;5029469;28;20045;-80
2022/11/20 10:04:10;;;;;;;0.80;0.80;;;;;;;;;;5018378;28;19917;-74
2022/11/20 10:07:00;;;;;;;1.83;0.95;;;;;;;;;;5006679;28;20084;-71
2022/11/20 10:09:55;;;;;;;1.20;0.90;;;;;;;;;;5016804;28;20021;-71
2022/11/20 10:12:56;;;;;;;1.23;1.05;;;;;;;;;;5032743;28;20033;-71
2022/11/20 10:16:01;;;;;;;0.93;0.93;;;;;;;;;;5017290;28;20048;-69
2022/11/20 10:18:46;;;;;;;1.52;1.00;;;;;;;;;;5024456;28;20416;-70
2022/11/20 10:21:50;;;;;;;1.95;1.02;;;;;;;;;;5021943;28;20180;-74
2022/11/20 10:24:15;;;;;;;1.35;1.10;;;;;;;;;;5026557;28;20057;-68
2022/11/20 10:26:57;;;;;;;1.33;0.83;;;;;;;;;;5030159;28;20053;-77
2022/11/20 10:29:29;;;;;;;1.27;1.08;;;;;;;;;;5021259;28;20025;-68
2022/11/20 10:32:01;;;;;;;2.10;0.82;;;;;;;;;;5031882;28;20477;-68
2022/11/20 10:34:33;;;;;;;1.38;0.95;;;;;;;;;;5030405;28;20025;-68
2022/11/20 10:37:03;;;;;;;1.77;1.00;;;;;;;;;;5025529;28;20029;-67
2022/11/20 10:39:28;;;;;;;;;;;;;;;;;;5028069;28;20029;-67
2022/11/20 10:41:54;;;;;;;1.80;1.30;;;;;;;;;;5027466;28;19928;-67
2022/11/20 10:47:05;;;;;;;2.00;1.02;;;;;;;;;;5029874;28;20042;-72
2022/11/20 10:49:32;;;;;;;1.98;0.93;;;;;;;;;;5010326;28;20029;-70
2022/11/20 10:52:07;;;;;;;1.50;0.93;;;;;;;;;;5026861;28;20036;-71
2022/11/20 10:54:36;;;;;;;3.42;0.90;;;;;;;;;;5028495;28;20033;-70
2022/11/20 10:57:21;;;;;;;1.15;0.88;;;;;;;;;;5032814;28;20159;-70
2022/11/20 10:59:53;;;;;;;2.65;1.20;;;;;;;;;;5008597;28;20034;-75
2022/11/20 11:02:22;;;;;;;1.08;1.00;;;;;;;;;;5030558;28;20018;-72
2022/11/20 11:05:14;;;;;;;1.50;1.00;;;;;;;;;;5013927;28;20037;-70
2022/11/20 11:08:00;;;;;;;1.52;0.90;;;;;;;;;;5032170;28;20037;-70
2022/11/20 11:10:52;;;;;;;3.20;1.00;;;;;;;;;;5027239;28;20080;-74
2022/11/20 11:13:37;;;;;;;1.58;0.93;;;;;;;;;;5031105;28;20029;-73
2022/11/20 11:16:24;;;;;;;2.38;1.13;;;;;;;;;;5023369;28;20034;-71
2022/11/20 11:19:13;;;;;;;2.40;1.38;;;;;;;;;;5023311;28;20635;-70
2022/11/20 11:21:59;;;;;;;1.80;1.02;;;;;;;;;;5037314;28;20026;-76
2022/11/20 11:24:51;;;;;;;2.85;1.60;;;;;;;;;;5017051;28;20037;-79
2022/11/20 11:27:45;;;;;;;1.65;1.08;;;;;;;;;;5008483;28;20021;-72
2022/11/20 11:30:40;;;;;;;1.92;1.27;;;;;;;;;;5015848;28;20040;-74
2022/11/20 11:33:27;;;;;;;4.88;1.55;;;;;;;;;;5031333;28;20109;-71
2022/11/20 11:36:24;;;;;;;2.10;1.35;;;;;;;;;;5028311;28;20061;-76
2022/11/20 11:39:17;;;;;;;2.75;1.52;;;;;;;;;;5030505;28;20423;-70
2022/11/20 11:42:02;;;;;;;1.58;1.17;;;;;;;;;;5017382;28;20040;-72
2022/11/20 11:45:06;;;;;;;3.38;1.48;;;;;;;;;;5014049;28;20025;-74
2022/11/20 11:47:52;;;;;;;3.42;1.20;;;;;;;;;;5027677;28;20018;-70
2022/11/20 11:50:47;;;;;;;2.83;1.23;;;;;;;;;;5030323;28;20083;-70
2022/11/20 11:53:34;;;;;;;3.30;1.90;;;;;;;;;;5039082;28;20039;-68
2022/11/20 11:56:19;;;;;;;1.55;1.20;;;;;;;;;;5031137;28;20113;-69
2022/11/20 11:59:06;;;;;;;3.90;1.77;;;;;;;;;;5029028;28;20029;-69
2022/11/20 12:01:54;;;;;;;2.83;1.48;;;;;;;;;;5025514;28;20036;-68
2022/11/20 12:04:43;;;;;;;5.03;1.67;;;;;;;;;;5013573;28;20033;-68
2022/11/20 12:07:42;;;;;;;2.00;1.10;;;;;;;;;;5031268;28;20035;-68
2022/11/20 12:10:37;;;;;;;2.57;1.20;;;;;;;;;;5015929;28;20017;-67
2022/11/20 12:13:34;;;;;;;3.42;1.40;;;;;;;;;;5028091;28;20253;-68
2022/11/20 12:16:20;;;;;;;1.65;1.10;;;;;;;;;;5030177;28;20056;-68
2022/11/20 12:19:13;;;;;;;2.90;1.17;;;;;;;;;;5023267;28;20123;-71
2022/11/20 12:21:58;;;;;;;5.35;1.48;;;;;;;;;;5027888;28;20057;-74
2022/11/20 12:25:02;;;;;;;5.00;1.67;;;;;;;;;;5028382;28;20025;-74
2022/11/20 12:28:14;;;;;;;3.65;1.70;;;;;;;;;;5031332;28;20040;-73
2022/11/20 12:31:02;;;;;;;3.15;1.10;;;;;;;;;;5025943;28;20037;-73
2022/11/20 12:33:50;;;;;;;1.73;1.10;;;;;;;;;;5015091;28;20087;-73
2022/11/20 12:36:35;;;;;;;2.72;1.40;;;;;;;;;;5024419;28;20041;-69
2022/11/20 12:39:31;;;;;;;4.85;1.20;;;;;;;;;;5028985;28;20177;-72
2022/11/20 12:45:33;;;;;;;8.52;2.40;;;;;;;;;;5030738;28;20033;-72
2022/11/20 12:48:44;;;;;;;3.25;1.08;;;;;;;;;;5030270;28;20041;-72
2022/11/20 12:51:32;;;;;;;1.45;0.95;;;;;;;;;;4995367;28;20395;-73
2022/11/20 12:54:30;;;;;;;3.17;2.00;;;;;;;;;;5013412;28;20028;-70
2022/11/20 12:57:27;;;;;;;2.58;1.50;;;;;;;;;;5021689;28;20080;-72
2022/11/20 13:00:22;;;;;;;6.45;1.10;;;;;;;;;;5011282;28;20119;-72
2022/11/20 13:03:26;;;;;;;1.10;1.00;;;;;;;;;;5030122;28;20420;-75
2022/11/20 13:06:16;;;;;;;5.35;0.95;;;;;;;;;;5031945;28;20100;-73
2022/11/20 13:09:02;;;;;;;1.83;1.20;;;;;;;;;;5026834;28;20369;-73
2022/11/20 13:12:01;;;;;;;3.92;0.90;;;;;;;;;;5031227;28;20368;-70
2022/11/20 13:14:46;;;;;;;5.05;1.02;;;;;;;;;;5028798;28;20041;-73
2022/11/20 13:17:38;;;;;;;2.50;1.00;;;;;;;;;;5020582;28;20096;-70
2022/11/20 13:20:24;;;;;;;1.50;0.90;;;;;;;;;;5026201;28;20037;-70
2022/11/20 13:23:09;;;;;;;2.45;0.95;;;;;;;;;;5032108;28;20032;-69
2022/11/20 13:26:15;;;;;;;2.00;0.93;;;;;;;;;;5030928;28;20164;-69
2022/11/20 13:29:19;;;;;;;2.17;0.90;;;;;;;;;;5021932;28;20029;-74
2022/11/20 13:32:14;;;;;;;2.50;1.02;;;;;;;;;;5031698;28;20163;-73
2022/11/20 13:35:03;;;;;;;1.83;0.88;;;;;;;;;;5029096;28;20037;-72
2022/11/20 13:37:58;;;;;;;2.13;1.20;;;;;;;;;;5030887;28;20035;-73
2022/11/20 13:40:53;;;;;;;1.25;0.82;;;;;;;;;;5032466;28;20037;-71
2022/11/20 13:43:40;;;;;;;1.33;0.98;;;;;;;;;;5028696;28;20033;-70
2022/11/20 13:46:35;;;;;;;3.97;1.95;;;;;;;;;;5028309;28;20080;-70
2022/11/20 13:49:31;;;;;;;1.45;1.10;;;;;;;;;;5027460;28;20546;-71
2022/11/20 13:52:32;;;;;;;5.10;1.40;;;;;;;;;;5032086;28;20188;-73
2022/11/20 13:55:20;;;;;;;2.65;1.13;;;;;;;;;;5028231;28;20121;-71
2022/11/20 13:58:28;;;;;;;4.40;1.20;;;;;;;;;;5015093;28;20033;-73
2022/11/20 14:01:19;;;;;;;2.97;0.98;;;;;;;;;;5029306;28;20575;-73
2022/11/20 14:04:10;;;;;;;2.00;1.20;;;;;;;;;;5019528;28;20044;-71
2022/11/20 14:06:56;;;;;;;3.13;1.05;;;;;;;;;;5011783;28;20044;-71
2022/11/20 14:09:49;;;;;;;5.13;1.55;;;;;;;;;;5016417;28;20037;-72
2022/11/20 14:12:34;;;;;;;4.07;1.33;;;;;;;;;;5015792;28;20033;-74
2022/11/20 14:15:40;;;;;;;3.88;1.15;;;;;;;;;;5031286;28;20179;-73
2022/11/20 14:18:26;;;;;;;3.00;1.52;;;;;;;;;;5016750;28;20025;-73
2022/11/20 14:21:11;;;;;;;3.45;1.38;;;;;;;;;;5026728;28;20495;-73
2022/11/20 14:24:06;;;;;;;1.50;1.02;;;;;;;;;;5031172;28;20025;-72
2022/11/20 14:26:52;;;;;;;2.75;1.23;;;;;;;;;;5024519;28;20053;-71
2022/11/20 14:29:38;;;;;;;2.70;1.40;;;;;;;;;;5018527;28;20109;-70
2022/11/20 14:32:27;;;;;;;2.78;1.42;;;;;;;;;;5016667;28;20244;-71
2022/11/20 14:35:26;;;;;;;2.95;1.33;;;;;;;;;;5026105;28;20033;-72
2022/11/20 14:38:13;;;;;;;2.53;1.08;;;;;;;;;;5017625;28;20028;-73
2022/11/20 14:41:08;;;;;;;4.10;1.10;;;;;;;;;;5016356;28;20364;-72
2022/11/20 14:43:57;;;;;;;2.15;1.20;;;;;;;;;;5020069;28;20072;-70
2022/11/20 14:46:43;;;;;;;4.18;1.20;;;;;;;;;;5011751;28;20029;-70
2022/11/20 14:49:29;;;;;;;3.63;1.13;;;;;;;;;;5014502;28;20026;-70
2022/11/20 14:52:14;;;;;;;3.30;1.20;;;;;;;;;;5009076;28;20481;-74
2022/11/20 14:55:00;;;;;;;1.83;1.20;;;;;;;;;;5021421;28;20128;-70
2022/11/20 14:57:53;;;;;;;3.08;1.73;;;;;;;;;;5030693;28;20021;-71
2022/11/20 15:00:39;;;;;;;3.10;1.38;;;;;;;;;;5027741;28;20029;-69
2022/11/20 15:03:30;;;;;;;3.90;1.77;;;;;;;;;;5026921;28;20463;-73
2022/11/20 15:06:25;;;;;;;4.53;1.60;;;;;;;;;;5035495;28;20417;-78
2022/11/20 15:09:14;;;;;;;5.88;1.83;;;;;;;;;;5011720;28;20086;-78
2022/11/20 15:12:03;;;;;;;5.18;1.25;;;;;;;;;;5032396;28;20109;-77
2022/11/20 15:14:48;;;;;;;4.03;1.90;;;;;;;;;;5032174;28;20045;-76
2022/11/20 15:17:36;;;;;;;2.63;1.23;;;;;;;;;;5017278;28;20033;-76
2022/11/20 15:20:23;;;;;;;6.00;1.60;;;;;;;;;;5015270;28;20097;-74
2022/11/20 15:23:13;;;;;;;4.00;1.70;;;;;;;;;;5026425;28;20036;-72
2022/11/20 15:25:58;;;;;;;4.60;1.40;;;;;;;;;;5028865;28;20029;-72
2022/11/20 15:28:44;;;;;;;2.15;1.33;;;;;;;;;;5026242;28;21693;-72
2022/11/20 15:31:29;;;;;;;5.93;1.83;;;;;;;;;;5010485;28;20294;-76
2022/11/20 15:34:15;;;;;;;5.30;1.65;;;;;;;;;;5014711;28;20369;-75
2022/11/20 15:37:00;;;;;;;2.17;1.20;;;;;;;;;;5029451;28;20044;-76
2022/11/20 15:39:44;;;;;;;2.13;1.27;;;;;;;;;;5019278;28;20040;-75
2022/11/20 15:42:09;;;;;;;5.47;2.28;;;;;;;;;;5011848;28;20025;-73
2022/11/20 15:44:34;;;;;;;2.03;1.50;;;;;;;;;;5013408;28;20029;-72
2022/11/20 15:47:00;;;;;;;3.47;1.80;;;;;;;;;;5032065;28;20268;-73
2022/11/20 15:49:25;;;;;;;4.13;1.73;;;;;;;;;;5027801;28;20284;-73
2022/11/20 15:51:52;;;;;;;2.47;1.48;;;;;;;;;;5030732;28;20028;-74
2022/11/20 15:54:21;;;;;;;3.70;1.67;;;;;;;;;;5013117;28;20075;-75
2022/11/20 15:56:47;;;;;;;4.97;2.28;;;;;;;;;;5030974;28;20037;-74
2022/11/20 15:59:16;;;;;;;2.92;1.38;;;;;;;;;;5011523;28;20025;-78
2022/11/20 16:01:41;;;;;;;3.70;1.60;;;;;;;;;;5005775;28;20057;-79
2022/11/20 16:04:14;;;;;;;2.33;1.50;;;;;;;;;;5028202;28;20372;-75
2022/11/20 16:06:39;;;;;;;4.03;1.60;;;;;;;;;;5025071;28;20161;-76
2022/11/20 16:09:04;;;;;;;5.75;2.25;;;;;;;;;;5022883;28;20116;-70
2022/11/20 16:11:30;;;;;;;10.02;3.85;;;;;;;;;;5037683;28;20041;-72
2022/11/20 16:16:43;;;;;;;3.25;1.92;;;;;;;;;;5014882;28;20053;-65
2022/11/20 16:19:15;;;;;;;5.28;1.95;;;;;;;;;;5030893;28;20142;-67
2022/11/20 16:21:41;;;;;;;3.60;1.90;;;;;;;;;;5029551;28;21648;-68
2022/11/20 16:24:08;;;;;;;7.82;3.78;;;;;;;;;;5031136;28;20021;-69
2022/11/20 16:26:33;;;;;;;4.45;1.88;;;;;;;;;;5029613;28;20040;-67
2022/11/20 16:28:59;;;;;;;5.68;1.90;;;;;;;;;;5028618;28;20375;-68
2022/11/20 16:31:24;;;;;;;3.10;1.75;;;;;;;;;;5004590;28;20068;-78
2022/11/20 16:33:54;;;;;;;5.00;1.60;;;;;;;;;;5028765;28;20030;-77
2022/11/20 16:36:27;;;;;;;2.22;1.50;;;;;;;;;;5029707;28;20021;-71
2022/11/20 16:39:12;;;;;;;2.95;1.27;;;;;;;;;;5000098;28;20029;-71
2022/11/20 16:41:58;;;;;;;2.33;1.75;;;;;;;;;;5029888;28;20041;-73
2022/11/20 16:44:45;;;;;;;5.13;1.80;;;;;;;;;;5004972;28;20033;-71
2022/11/20 16:47:34;;;;;;;3.90;1.75;;;;;;;;;;5025841;28;20030;-72
2022/11/20 16:50:19;;;;;;;3.13;1.55;;;;;;;;;;5011373;28;20048;-72
2022/11/20 16:53:04;;;;;;;4.68;2.35;;;;;;;;;;5016796;28;20041;-72